Neptune Avra — 9HKH6 — position and weather

sailwx.info

Track history (hours):
 
Tides and Currents Weather Stations Pressure Air Temp Water Temp Dewpoint Dewpoint Depression Visibility Wind Speed Wind Dir Waves Ship Positions

Neptune Avra

Last reported at 2017-Mar-27 23:31 UTC. Time now 2017-Mar-28 06:18 UTC.
Position N 39°16' E 000°54'.

Length 155 m; draft 6 m.

Type: Cargo ship. MMSI: 248598000.

Date/timePositionNaut miles runAvg speedWind from/ knotsBaromVisibWave heightAir tempDewpointWater temp
2017-Mar-27 23:31N 39°16' E 000°54'3417.3
2017-Mar-27 21:32N 39°44' E 001°20'1717.1
2017-Mar-27 20:33N 39°58' E 001°33'1716.8
2017-Mar-27 19:33N 40°12' E 001°45'1717.1
2017-Mar-27 18:33N 40°26' E 001°58'1716.8
2017-Mar-27 17:33N 40°40' E 002°11'1717.2
2017-Mar-27 16:33N 40°53' E 002°24'1717.0
2017-Mar-27 15:32N 41°07' E 002°37'2516.9
2017-Mar-27 14:04N 41°28' E 002°56'  
2017-Mar-24 22:32N 40°60' E 001°36'11615.9
2017-Mar-24 15:14N 39°37' W 000°11'1 0.1
2017-Mar-24 05:18N 39°37' W 000°11'111 3.7
2017-Mar-22 23:19N 41°05' E 001°16'0 0.0
2017-Mar-22 17:31N 41°05' E 001°16'0 0.0
2017-Mar-22 13:31N 41°05' E 001°16'0 0.1
2017-Mar-22 12:33N 41°05' E 001°16'1413.8
2017-Mar-22 11:33N 40°58' E 001°32'1616.1
2017-Mar-22 10:33N 40°52' E 001°52'1616.1
2017-Mar-22 09:33N 40°46' E 002°11'1616.3
2017-Mar-22 08:33N 40°40' E 002°31'1616.2
2017-Mar-22 07:33N 40°33' E 002°51'1616.0
2017-Mar-22 06:33N 40°27' E 003°10'27216.7
2017-Mar-21 14:14N 38°44' E 008°36'1318.4
2017-Mar-21 13:33N 38°39' E 008°51'15418.6
2017-Mar-21 05:18N 37°38' E 011°51'1718.9
2017-Mar-21 04:24N 37°30' E 012°10'1618.9
2017-Mar-21 03:33N 37°22' E 012°27'4319.2
2017-Mar-21 01:18N 37°04' E 013°16'1418.9
2017-Mar-21 00:33N 36°58' E 013°33'1919.1
2017-Mar-20 23:33N 36°51' E 013°55'1919.0
2017-Mar-20 22:33N 36°44' E 014°17'1918.6
2017-Mar-20 21:34N 36°38' E 014°39'1918.7
2017-Mar-20 20:33N 36°33' E 015°01'1918.8
2017-Mar-20 19:33N 36°31' E 015°24'2218.8
2017-Mar-20 18:24N 36°31' E 015°51'1718.7
2017-Mar-20 17:30N 36°31' E 016°12'1818.4
2017-Mar-20 16:32N 36°30' E 016°35'34815.8
2017-Mar-19 18:33N 37°42' E 023°41'1514.9
2017-Mar-19 17:33N 37°57' E 023°36'1 1.0
2017-Mar-19 16:31N 37°58' E 023°37'0 0.0
2017-Mar-19 15:33N 37°58' E 023°37'1 0.3
2017-Mar-19 13:33N 37°57' E 023°36'0 0.0
2017-Mar-19 12:33N 37°57' E 023°36'0 0.0
2017-Mar-19 11:33N 37°57' E 023°36'0 0.0
2017-Mar-19 10:29N 37°57' E 023°36'0 0.0
2017-Mar-19 09:29N 37°57' E 023°36'0 0.0
2017-Mar-19 08:33N 37°57' E 023°36'0 0.0
2017-Mar-19 07:33N 37°57' E 023°36'2 2.2
2017-Mar-19 06:33N 37°55' E 023°37'1515.4
2017-Mar-19 05:33N 37°41' E 023°46'1716.8
2017-Mar-19 04:33N 37°36' E 024°06'1817.3
2017-Mar-19 03:31N 37°48' E 024°24'  
Track history (hours):
 
Tides and Currents Weather Stations Pressure Air Temp Water Temp Dewpoint Dewpoint Depression Visibility Wind Speed Wind Dir Waves Ship Positions

Neptune Avra

Last reported at 2017-Mar-27 23:31 UTC. Time now 2017-Mar-28 06:18 UTC.
Position N 39°16' E 000°54'.

Length 155 m; draft 6 m.

Type: Cargo ship. MMSI: 248598000.

Date/timePositionNaut miles runAvg speedWind from/ knotsBaromVisibWave heightAir tempDewpointWater temp
2017-Mar-27 23:31N 39°16' E 000°54'3417.3
2017-Mar-27 21:32N 39°44' E 001°20'1717.1
2017-Mar-27 20:33N 39°58' E 001°33'1716.8
2017-Mar-27 19:33N 40°12' E 001°45'1717.1
2017-Mar-27 18:33N 40°26' E 001°58'1716.8
2017-Mar-27 17:33N 40°40' E 002°11'1717.2
2017-Mar-27 16:33N 40°53' E 002°24'1717.0
2017-Mar-27 15:32N 41°07' E 002°37'2516.9
2017-Mar-27 14:04N 41°28' E 002°56'  
2017-Mar-24 22:32N 40°60' E 001°36'11615.9
2017-Mar-24 15:14N 39°37' W 000°11'1 0.1
2017-Mar-24 05:18N 39°37' W 000°11'111 3.7
2017-Mar-22 23:19N 41°05' E 001°16'0 0.0
2017-Mar-22 17:31N 41°05' E 001°16'0 0.0
2017-Mar-22 13:31N 41°05' E 001°16'0 0.1
2017-Mar-22 12:33N 41°05' E 001°16'1413.8
2017-Mar-22 11:33N 40°58' E 001°32'1616.1
2017-Mar-22 10:33N 40°52' E 001°52'1616.1
2017-Mar-22 09:33N 40°46' E 002°11'1616.3
2017-Mar-22 08:33N 40°40' E 002°31'1616.2
2017-Mar-22 07:33N 40°33' E 002°51'1616.0
2017-Mar-22 06:33N 40°27' E 003°10'27216.7
2017-Mar-21 14:14N 38°44' E 008°36'1318.4
2017-Mar-21 13:33N 38°39' E 008°51'15418.6
2017-Mar-21 05:18N 37°38' E 011°51'1718.9
2017-Mar-21 04:24N 37°30' E 012°10'1618.9
2017-Mar-21 03:33N 37°22' E 012°27'4319.2
2017-Mar-21 01:18N 37°04' E 013°16'1418.9
2017-Mar-21 00:33N 36°58' E 013°33'1919.1
2017-Mar-20 23:33N 36°51' E 013°55'1919.0
2017-Mar-20 22:33N 36°44' E 014°17'1918.6
2017-Mar-20 21:34N 36°38' E 014°39'1918.7
2017-Mar-20 20:33N 36°33' E 015°01'1918.8
2017-Mar-20 19:33N 36°31' E 015°24'2218.8
2017-Mar-20 18:24N 36°31' E 015°51'1718.7
2017-Mar-20 17:30N 36°31' E 016°12'1818.4
2017-Mar-20 16:32N 36°30' E 016°35'34815.8
2017-Mar-19 18:33N 37°42' E 023°41'1514.9
2017-Mar-19 17:33N 37°57' E 023°36'1 1.0
2017-Mar-19 16:31N 37°58' E 023°37'0 0.0
2017-Mar-19 15:33N 37°58' E 023°37'1 0.3
2017-Mar-19 13:33N 37°57' E 023°36'0 0.0
2017-Mar-19 12:33N 37°57' E 023°36'0 0.0
2017-Mar-19 11:33N 37°57' E 023°36'0 0.0
2017-Mar-19 10:29N 37°57' E 023°36'0 0.0
2017-Mar-19 09:29N 37°57' E 023°36'0 0.0
2017-Mar-19 08:33N 37°57' E 023°36'0 0.0
2017-Mar-19 07:33N 37°57' E 023°36'2 2.2
2017-Mar-19 06:33N 37°55' E 023°37'1515.4
2017-Mar-19 05:33N 37°41' E 023°46'1716.8
2017-Mar-19 04:33N 37°36' E 024°06'1817.3
2017-Mar-19 03:31N 37°48' E 024°24'  

Dump ship's entire track history